• Join FlightAware (Why Join?)
  • Login
  • US Flag 
01:26PM EST


 

Airport Tracker/Info


-or-


 

Live Flight TrackerFlight Track Log ✈ JBU1329 ✈ 23-May-2013 ✈ KBOS - KBWI

Flight Track Log - Related Links

Times and Time Zones

All times are in EDT time to prevent confusion due to time zone crossing. See the JBU1329 flight status page for this flight to view local times or setup timezone preferences in your user account.

Time Position Orientation Groundspeed Altitude Reporting Facility
EDT Latitude Longitude Course Direction KTS MPH feet Rate Location/Type
09:18AM 42.3667 -70.9667 270° West 185 213 600  Level KA90
09:19AM 42.3667 -70.9333 90° East 176 203 1,500 1,860 Climbing KA90
09:20AM 42.3833 -70.8500 75° East 253 291 3,600 2,700 Climbing KA90
09:21AM 42.2893 -70.7328 228° Southwest  Level FlightAware Approximate
09:21AM 42.3667 -70.7333 101° East 275 316 7,500  Level KA90
09:22AM 42.2261 -70.8335 240° Southwest  Level FlightAware Approximate
09:22AM 42.2978 -70.7250 175° South 281 323 10,000  Level Boston Center
09:23AM 42.1833 -70.9502 270° West  Level FlightAware Approximate
09:23AM 42.2422 -70.7769 215° Southwest 250 288 13,000  Level Boston Center
09:24AM 42.2019 -70.8761 241° Southwest 264 304 14,600 1,860 Climbing Boston Center
09:25AM 42.1831 -71.0111 259° West 308 354 16,800 2,040 Climbing Boston Center
09:26AM 42.1678 -71.1292 260° West 349 402 18,700 2,040 Climbing Boston Center
09:27AM 42.1508 -71.2892 262° West 387 445 20,900 1,860 Climbing Boston Center
09:28AM 42.1292 -71.4353 259° West 393 452 22,500 1,620 Climbing Boston Center
09:29AM 42.1053 -71.5783 257° West 393 452 24,200 1,620 Climbing Boston Center
09:30AM 42.0856 -71.7267 260° West 398 458 25,800 1,500 Climbing Boston Center
09:31AM 42.0572 -71.8781 256° West 406 467 27,300 1,440 Climbing Boston Center
09:32AM 42.0017 -72.0156 242° Southwest 412 474 28,700 1,140 Climbing Boston Center
09:33AM 41.9269 -72.1750 238° Southwest 418 481 29,900 900 Climbing Boston Center
09:34AM 41.8647 -72.3147 239° Southwest 434 499 30,700 780 Climbing Boston Center
09:35AM 41.8003 -72.4567 239° Southwest 444 511 31,500 600 Climbing Boston Center
09:36AM 41.7356 -72.5986 239° Southwest 449 517 32,000 240 Climbing Boston Center
09:37AM 41.6728 -72.7431 240° Southwest 449 517 32,000  Level Boston Center
09:38AM 41.6056 -72.8842 238° Southwest 449 517 32,000  Level Boston Center
09:39AM 41.5403 -73.0169 237° Southwest 449 517 32,000  Level Boston Center
09:40AM 41.4875 -73.1217 236° Southwest 444 511 32,000  Level Boston Center
09:42AM 41.3289 -73.3683 229° Southwest 438 504 32,000  Level New York Center
09:43AM 41.2611 -73.5036 236° Southwest 444 511 32,000  Level New York Center
09:44AM 41.1914 -73.6414 236° Southwest 450 518 32,000  Level New York Center
09:45AM 41.1233 -73.7733 236° Southwest 450 518 32,000  Level New York Center
09:46AM 41.0533 -73.9025 234° Southwest 445 512 32,000 -120 Level New York Center
09:47AM 40.9875 -74.0339 236° Southwest 439 505 31,800 -780 Descending New York Center
09:48AM 40.9192 -74.1653 235° Southwest 434 499 30,500 -1,440 Descending New York Center
09:49AM 40.8447 -74.2906 232° Southwest 434 499 29,000 -1,260 Descending New York Center
09:50AM 40.7739 -74.4211 234° Southwest 441 507 28,000 -540 Descending New York Center
09:51AM 40.7033 -74.5458 233° Southwest 435 501 28,000 -300 Level New York Center
09:52AM 40.6406 -74.6792 238° Southwest 435 501 27,500 -960 Descending New York Center
09:53AM 40.5858 -74.8208 243° Southwest 428 493 26,200 -1,380 Descending New York Center
09:54AM 40.5356 -74.9517 243° Southwest 428 493 24,800 -1,500 Descending New York Center
09:55AM 40.4850 -75.0822 243° Southwest 411 473 23,200 -1,500 Descending New York Center
09:56AM 40.4103 -75.1839 226° Southwest 400 460 21,800 -1,440 Descending New York Center
09:57AM 40.3403 -75.2722 224° Southwest 400 460 20,400 -1,320 Descending New York Center
09:58AM 40.2656 -75.3706 225° Southwest 388 447 19,300 -720 Descending New York Center
09:59AM 40.1844 -75.4767 225° Southwest 388 447 19,000 -180 Descending New York Center
10:00AM 40.1164 -75.5589 223° Southwest 382 440 19,000  Level New York Center
10:01AM 40.0369 -75.6672 226° Southwest 377 434 19,000 -480 Level New York Center
10:02AM 39.9708 -75.7522 225° Southwest 377 434 18,100 -1,320 Descending New York Center
10:03AM 39.8914 -75.8519 224° Southwest 371 427 16,500 -1,560 Descending New York Center
10:05AM 39.7500 -76.0333 225° Southwest 347 399 13,400 -1,440 Descending Potomac TRACON
10:06AM 39.6833 -76.1333 229° Southwest 309 356 12,000 -720 Descending Potomac TRACON
10:07AM 39.6333 -76.2167 232° Southwest 274 315 12,000 -120 Level Potomac TRACON
10:08AM 39.6000 -76.2833 237° Southwest 275 316 11,800 -600 Descending Potomac TRACON
10:09AM 39.5333 -76.3333 210° Southwest 275 316 10,900 -1,380 Descending Potomac TRACON
10:10AM 39.5167 -76.4333 258° West 276 318 9,100 -1,860 Descending Potomac TRACON
10:11AM 39.4833 -76.5167 243° Southwest 275 316 7,200 -1,740 Descending Potomac TRACON
10:12AM 39.4167 -76.5000 169° South 271 312 5,700 -1,140 Descending Potomac TRACON
10:13AM 39.3500 -76.4500 150° Southeast 269 310 5,000 -780 Descending Potomac TRACON
10:14AM 39.2833 -76.4333 169° South 262 302 4,200 -540 Descending Potomac TRACON
10:15AM 39.2000 -76.4000 163° South 263 303 4,000 -120 Descending Potomac TRACON
10:16AM 39.1333 -76.4000 180° South 261 300 4,000 -60 Level Potomac TRACON
10:17AM 39.0833 -76.4500 218° Southwest 225 259 3,900 -540 Descending Potomac TRACON
10:18AM 39.0500 -76.5000 229° Southwest 207 238 3,000 -840 Descending Potomac TRACON
10:19AM 39.0667 -76.5667 288° West 166 191 2,400 -660 Descending Potomac TRACON
10:20AM 39.1000 -76.6000 322° Northwest 163 188 1,800 -780 Descending Potomac TRACON
10:21AM 39.1333 -76.6333 322° Northwest 155 178 1,000 -840 Descending Potomac TRACON